UDCIV weather

Campo di Volo Ali Friuli
Cividale del Friuli (UD), Friuli-Venezia Giulia, Italy

Public forecast

Using degrees Celsius for public forecast. Weather courtesy of forecast.io.

METAR (pilot weather report)

Closest report is Trieste–Friuli Venezia Giulia Airport, 13.9 nm (25.7 km) S. Retrieved 2019/07/23 19:20 UTC (11 minutes ago):

LIPQ 231920Z 14005KT CAVOK 28/22 Q1017

TAF (pilot weather forecast)

Closest forecast is Trieste–Friuli Venezia Giulia Airport, 13.9 nm (25.7 km) S. Retrieved 2019/07/23 18:25 UTC (1 hour ago):

TAF LIPQ 231700Z 2318/2418 VRB04KT CAVOK BECMG 2410/2412 22010KT